Jonesboro, AR (72403)

1:37 AM CDT on July 27, 2016 (GMT -0500)
Windsor Landing | | Change Station

Elev 295 ft 35.87 °N, 90.62 °W | Updated 7 seconds ago

Clear
Clear
75.7 °F
Feels Like 75 °F
N
0.0
Wind Variable Wind from NNE

Today
High -- | Low -- °F
--% Chance of Precip.
Yesterday
High -- | Low -- °F
Precip. -- in
Pressure 29.94 in
Visibility 10.0 miles
Clouds Clear
Heat Index 75 °F
Dew Point 73 °F
Humidity 92%
Rainfall 0.00 in
Snow Depth Not available.
6:06 AM 8:10 PM
Waning Gibbous, 46% visible
METAR KJBR 270553Z AUTO 06005KT 10SM CLR 25/23 A2995 RMK AO2 SLP139 T02500233 10328 20250 403500239 58004
Pressure 29.94 in
Visibility 10.0 miles
Clouds Clear
Heat Index 75 °F
Dew Point 73 °F
Humidity 92%
Rainfall 0.00 in
Snow Depth Not available.
6:06 AM 8:10 PM
Waning Gibbous, 46% visible
METAR KJBR 270553Z AUTO 06005KT 10SM CLR 25/23 A2995 RMK AO2 SLP139 T02500233 10328 20250 403500239 58004

10-Day Weather Forecast

Almanac

Astronomy

Jul. 27, 2016 Rise Set
Actual Time
Civil Twilight
Nautical Twilight
Astronomical Twilight
Moon
Length of Visible Light
Length of Day
Tomorrow will be .
, % of the Moon is Illuminated

Today's Extremes

State Highs State Lows

Community

WunderPhotos

Upload Photos

1,927,818 photos uploaded!

WunderBlog® & News

Nearby

Air Quality

  Air Quality AQ Index Pollutant
Not available.

Snow Depth

Station Depth Elevation

Earthquake Activity

City Distance Mag. Time & Date
Minimum magnitude displayed is 2.5.

Coastal Water Temperatures

Place Temperature

Stations

Nearby Weather Stations

Station Location Temp. Windchill Dew Point Humidity Wind Precip. Elev Updated Type
                   

Watches & Warnings

There are currently no watches in effect.